sensor_id;sensor_type;location;lat;lon;timestamp;P1;P2;P0
30713;PMS7003;17465;47.934;33.430;2023-10-13T00:01:16;6.50;5.00;4.00
30713;PMS7003;17465;47.934;33.430;2023-10-13T00:03:47;5.50;4.75;3.00
30713;PMS7003;17465;47.934;33.430;2023-10-13T00:06:19;4.25;4.25;3.00
30713;PMS7003;17465;47.934;33.430;2023-10-13T00:08:50;5.00;5.00;4.00
30713;PMS7003;17465;47.934;33.430;2023-10-13T00:11:31;6.00;6.00;3.25
30713;PMS7003;17465;47.934;33.430;2023-10-13T00:14:01;3.00;3.00;3.00
30713;PMS7003;17465;47.934;33.430;2023-10-13T00:16:31;4.75;4.00;2.75
30713;PMS7003;17465;47.934;33.430;2023-10-13T00:19:02;5.00;5.00;3.00
30713;PMS7003;17465;47.934;33.430;2023-10-13T00:21:33;7.25;4.75;3.50
30713;PMS7003;17465;47.934;33.430;2023-10-13T00:24:03;6.50;6.50;4.00
30713;PMS7003;17465;47.934;33.430;2023-10-13T00:26:34;8.00;6.50;4.75
30713;PMS7003;17465;47.934;33.430;2023-10-13T00:29:04;8.00;6.25;3.25
30713;PMS7003;17465;47.934;33.430;2023-10-13T00:31:35;5.00;5.00;3.25
30713;PMS7003;17465;47.934;33.430;2023-10-13T00:34:10;5.75;5.75;3.75
30713;PMS7003;17465;47.934;33.430;2023-10-13T00:36:47;8.50;6.00;3.50
30713;PMS7003;17465;47.934;33.430;2023-10-13T00:39:13;8.75;7.75;4.25
30713;PMS7003;17465;47.934;33.430;2023-10-13T00:41:47;8.00;8.00;4.75
30713;PMS7003;17465;47.934;33.430;2023-10-13T00:44:18;6.50;6.50;3.75
30713;PMS7003;17465;47.934;33.430;2023-10-13T00:46:48;7.50;7.00;4.50
30713;PMS7003;17465;47.934;33.430;2023-10-13T00:49:19;6.00;6.00;3.75
30713;PMS7003;17465;47.934;33.430;2023-10-13T00:51:50;4.75;3.50;2.50
30713;PMS7003;17465;47.934;33.430;2023-10-13T00:54:21;7.50;7.50;5.00
30713;PMS7003;17465;47.934;33.430;2023-10-13T00:56:51;6.75;6.00;2.00
30713;PMS7003;17465;47.934;33.430;2023-10-13T00:59:21;5.25;5.25;4.00
30713;PMS7003;17465;47.934;33.430;2023-10-13T01:01:52;6.00;6.00;3.50
30713;PMS7003;17465;47.934;33.430;2023-10-13T01:04:22;7.00;7.00;3.75
30713;PMS7003;17465;47.934;33.430;2023-10-13T01:06:53;10.25;7.00;5.00
30713;PMS7003;17465;47.934;33.430;2023-10-13T01:09:26;6.25;6.25;3.25
30713;PMS7003;17465;47.934;33.430;2023-10-13T01:11:57;8.00;8.00;6.00
30713;PMS7003;17465;47.934;33.430;2023-10-13T01:14:27;6.75;6.75;4.00
30713;PMS7003;17465;47.934;33.430;2023-10-13T01:16:57;8.50;8.50;5.25
30713;PMS7003;17465;47.934;33.430;2023-10-13T01:19:28;7.25;7.25;4.00
30713;PMS7003;17465;47.934;33.430;2023-10-13T01:21:58;9.00;8.00;6.50
30713;PMS7003;17465;47.934;33.430;2023-10-13T01:24:32;7.00;7.00;4.00
30713;PMS7003;17465;47.934;33.430;2023-10-13T01:27:05;9.75;9.00;6.00
30713;PMS7003;17465;47.934;33.430;2023-10-13T01:29:36;7.00;7.00;5.25
30713;PMS7003;17465;47.934;33.430;2023-10-13T01:32:07;8.00;8.00;6.00
30713;PMS7003;17465;47.934;33.430;2023-10-13T01:34:37;11.50;11.00;6.00
30713;PMS7003;17465;47.934;33.430;2023-10-13T01:37:08;10.25;7.75;6.00
30713;PMS7003;17465;47.934;33.430;2023-10-13T01:39:38;9.50;8.00;6.00
30713;PMS7003;17465;47.934;33.430;2023-10-13T01:42:09;9.25;8.25;5.50
30713;PMS7003;17465;47.934;33.430;2023-10-13T01:44:41;9.25;8.75;6.00
30713;PMS7003;17465;47.934;33.430;2023-10-13T01:47:11;7.00;5.50;4.00
30713;PMS7003;17465;47.934;33.430;2023-10-13T01:49:41;9.00;9.00;6.75
30713;PMS7003;17465;47.934;33.430;2023-10-13T01:52:12;9.50;9.50;8.00
30713;PMS7003;17465;47.934;33.430;2023-10-13T01:54:50;6.75;6.50;4.75
30713;PMS7003;17465;47.934;33.430;2023-10-13T01:57:27;8.75;8.00;4.25
30713;PMS7003;17465;47.934;33.430;2023-10-13T01:59:57;12.00;12.00;7.25
30713;PMS7003;17465;47.934;33.430;2023-10-13T02:02:27;8.00;8.00;7.25
30713;PMS7003;17465;47.934;33.430;2023-10-13T02:05:02;12.00;11.50;6.50
30713;PMS7003;17465;47.934;33.430;2023-10-13T02:07:34;10.25;7.75;5.25
30713;PMS7003;17465;47.934;33.430;2023-10-13T02:10:05;9.00;9.00;7.25
30713;PMS7003;17465;47.934;33.430;2023-10-13T02:12:38;9.50;7.75;5.00
30713;PMS7003;17465;47.934;33.430;2023-10-13T02:15:14;8.25;8.25;5.75
30713;PMS7003;17465;47.934;33.430;2023-10-13T02:17:41;9.25;9.25;6.50
30713;PMS7003;17465;47.934;33.430;2023-10-13T02:20:11;9.25;9.25;7.00
30713;PMS7003;17465;47.934;33.430;2023-10-13T02:22:41;11.00;11.00;7.25
30713;PMS7003;17465;47.934;33.430;2023-10-13T02:25:12;12.25;12.25;7.75
30713;PMS7003;17465;47.934;33.430;2023-10-13T02:27:42;13.75;13.25;7.50
30713;PMS7003;17465;47.934;33.430;2023-10-13T02:30:13;12.75;11.50;8.50
30713;PMS7003;17465;47.934;33.430;2023-10-13T02:32:43;13.25;11.50;7.25
30713;PMS7003;17465;47.934;33.430;2023-10-13T02:35:13;13.50;11.50;8.00
30713;PMS7003;17465;47.934;33.430;2023-10-13T02:37:46;12.25;12.25;8.00
30713;PMS7003;17465;47.934;33.430;2023-10-13T02:40:19;15.50;14.25;8.25
30713;PMS7003;17465;47.934;33.430;2023-10-13T02:42:50;12.25;12.25;8.50
30713;PMS7003;17465;47.934;33.430;2023-10-13T02:45:21;14.25;10.50;6.75
30713;PMS7003;17465;47.934;33.430;2023-10-13T02:47:54;13.75;12.25;8.25
30713;PMS7003;17465;47.934;33.430;2023-10-13T02:50:25;10.75;10.75;7.00
30713;PMS7003;17465;47.934;33.430;2023-10-13T02:52:55;12.75;12.75;8.75
30713;PMS7003;17465;47.934;33.430;2023-10-13T02:55:25;15.50;15.50;8.25
30713;PMS7003;17465;47.934;33.430;2023-10-13T02:57:58;16.75;16.50;10.00
30713;PMS7003;17465;47.934;33.430;2023-10-13T03:00:28;18.00;15.25;9.00
30713;PMS7003;17465;47.934;33.430;2023-10-13T03:02:58;18.75;18.00;13.00
30713;PMS7003;17465;47.934;33.430;2023-10-13T03:05:32;18.00;18.00;13.25
30713;PMS7003;17465;47.934;33.430;2023-10-13T03:08:02;19.50;16.75;11.00
30713;PMS7003;17465;47.934;33.430;2023-10-13T03:10:33;16.75;15.75;10.50
30713;PMS7003;17465;47.934;33.430;2023-10-13T03:13:03;19.25;18.00;12.75
30713;PMS7003;17465;47.934;33.430;2023-10-13T03:15:33;19.25;18.50;13.50
30713;PMS7003;17465;47.934;33.430;2023-10-13T03:18:03;18.25;18.25;11.25
30713;PMS7003;17465;47.934;33.430;2023-10-13T03:20:37;17.50;17.00;11.25
30713;PMS7003;17465;47.934;33.430;2023-10-13T03:23:07;15.50;11.50;7.25
30713;PMS7003;17465;47.934;33.430;2023-10-13T03:25:37;20.00;17.50;10.50
30713;PMS7003;17465;47.934;33.430;2023-10-13T03:28:11;20.00;20.00;12.75
30713;PMS7003;17465;47.934;33.430;2023-10-13T03:30:41;26.50;25.50;15.00
30713;PMS7003;17465;47.934;33.430;2023-10-13T03:33:11;27.00;23.25;15.25
30713;PMS7003;17465;47.934;33.430;2023-10-13T03:35:44;34.00;31.00;19.00
30713;PMS7003;17465;47.934;33.430;2023-10-13T03:38:17;24.00;24.00;17.00
30713;PMS7003;17465;47.934;33.430;2023-10-13T03:40:48;25.25;24.25;15.75
30713;PMS7003;17465;47.934;33.430;2023-10-13T03:43:38;19.50;17.50;10.00
30713;PMS7003;17465;47.934;33.430;2023-10-13T03:46:11;16.00;15.75;12.00
30713;PMS7003;17465;47.934;33.430;2023-10-13T03:48:42;16.25;16.25;13.25
30713;PMS7003;17465;47.934;33.430;2023-10-13T03:51:12;17.25;16.00;11.50
30713;PMS7003;17465;47.934;33.430;2023-10-13T03:53:43;21.50;17.25;12.75
30713;PMS7003;17465;47.934;33.430;2023-10-13T03:56:13;21.00;17.25;12.00
30713;PMS7003;17465;47.934;33.430;2023-10-13T03:58:43;24.75;24.25;14.25
30713;PMS7003;17465;47.934;33.430;2023-10-13T04:01:14;25.00;24.25;14.50
30713;PMS7003;17465;47.934;33.430;2023-10-13T04:03:44;24.25;24.25;16.00
30713;PMS7003;17465;47.934;33.430;2023-10-13T04:06:14;21.25;20.25;12.00
30713;PMS7003;17465;47.934;33.430;2023-10-13T04:08:45;17.50;17.00;12.00
30713;PMS7003;17465;47.934;33.430;2023-10-13T04:11:15;13.25;13.00;7.25
30713;PMS7003;17465;47.934;33.430;2023-10-13T04:13:45;16.50;16.50;10.25
30713;PMS7003;17465;47.934;33.430;2023-10-13T04:16:16;16.50;12.50;8.50
30713;PMS7003;17465;47.934;33.430;2023-10-13T04:18:49;9.00;7.75;4.75
30713;PMS7003;17465;47.934;33.430;2023-10-13T04:21:20;14.25;13.00;8.50
30713;PMS7003;17465;47.934;33.430;2023-10-13T04:23:53;14.25;14.25;7.50
30713;PMS7003;17465;47.934;33.430;2023-10-13T04:26:29;13.25;11.25;7.00
30713;PMS7003;17465;47.934;33.430;2023-10-13T04:28:55;8.75;8.00;7.00
30713;PMS7003;17465;47.934;33.430;2023-10-13T04:31:26;14.25;13.00;8.00
30713;PMS7003;17465;47.934;33.430;2023-10-13T04:34:01;15.00;15.00;9.25
30713;PMS7003;17465;47.934;33.430;2023-10-13T04:36:31;15.00;13.25;8.50
30713;PMS7003;17465;47.934;33.430;2023-10-13T04:39:02;13.00;13.00;9.00
30713;PMS7003;17465;47.934;33.430;2023-10-13T04:41:37;14.50;14.00;9.00
30713;PMS7003;17465;47.934;33.430;2023-10-13T04:44:11;15.50;12.75;8.75
30713;PMS7003;17465;47.934;33.430;2023-10-13T04:46:46;11.50;9.25;7.00
30713;PMS7003;17465;47.934;33.430;2023-10-13T04:49:21;12.50;12.50;8.50
30713;PMS7003;17465;47.934;33.430;2023-10-13T04:51:53;15.00;14.25;9.25
30713;PMS7003;17465;47.934;33.430;2023-10-13T04:54:36;2.25;1.00;0.00
30713;PMS7003;17465;47.934;33.430;2023-10-13T04:57:14;12.00;12.00;8.00
30713;PMS7003;17465;47.934;33.430;2023-10-13T04:59:49;13.75;13.75;8.75
30713;PMS7003;17465;47.934;33.430;2023-10-13T05:02:21;12.00;12.00;7.75
30713;PMS7003;17465;47.934;33.430;2023-10-13T05:04:51;10.50;10.50;8.00
30713;PMS7003;17465;47.934;33.430;2023-10-13T05:07:22;12.75;12.00;8.00
30713;PMS7003;17465;47.934;33.430;2023-10-13T05:09:52;10.50;10.50;8.00
30713;PMS7003;17465;47.934;33.430;2023-10-13T05:12:24;14.00;12.25;8.00
30713;PMS7003;17465;47.934;33.430;2023-10-13T05:14:58;15.00;14.75;9.00
30713;PMS7003;17465;47.934;33.430;2023-10-13T05:17:29;17.00;15.00;8.75
30713;PMS7003;17465;47.934;33.430;2023-10-13T05:22:42;18.00;17.25;10.50
30713;PMS7003;17465;47.934;33.430;2023-10-13T05:25:13;14.00;11.50;7.50
30713;PMS7003;17465;47.934;33.430;2023-10-13T05:27:46;17.50;16.25;12.25
30713;PMS7003;17465;47.934;33.430;2023-10-13T05:30:16;14.00;14.00;10.00
30713;PMS7003;17465;47.934;33.430;2023-10-13T05:32:48;15.75;13.00;9.00
30713;PMS7003;17465;47.934;33.430;2023-10-13T05:35:20;16.75;12.00;7.75
30713;PMS7003;17465;47.934;33.430;2023-10-13T05:37:54;12.50;10.50;7.00
30713;PMS7003;17465;47.934;33.430;2023-10-13T05:40:31;12.75;12.75;9.00
30713;PMS7003;17465;47.934;33.430;2023-10-13T05:43:12;16.75;16.75;9.00
30713;PMS7003;17465;47.934;33.430;2023-10-13T05:45:43;10.00;10.00;8.25
30713;PMS7003;17465;47.934;33.430;2023-10-13T05:48:13;13.75;13.75;9.00
30713;PMS7003;17465;47.934;33.430;2023-10-13T05:50:44;13.00;13.00;8.25
30713;PMS7003;17465;47.934;33.430;2023-10-13T05:53:14;10.00;10.00;7.00
30713;PMS7003;17465;47.934;33.430;2023-10-13T05:55:45;11.75;11.00;7.00
30713;PMS7003;17465;47.934;33.430;2023-10-13T06:01:12;13.00;13.00;9.75
30713;PMS7003;17465;47.934;33.430;2023-10-13T06:03:39;12.50;9.75;6.50
30713;PMS7003;17465;47.934;33.430;2023-10-13T06:06:17;13.50;13.00;9.00
30713;PMS7003;17465;47.934;33.430;2023-10-13T06:08:53;15.75;14.50;10.50
30713;PMS7003;17465;47.934;33.430;2023-10-13T06:11:27;11.75;11.75;7.75
30713;PMS7003;17465;47.934;33.430;2023-10-13T06:14:17;15.50;13.00;8.00
30713;PMS7003;17465;47.934;33.430;2023-10-13T06:16:49;18.25;15.50;9.75
30713;PMS7003;17465;47.934;33.430;2023-10-13T06:19:19;8.75;8.75;3.00
30713;PMS7003;17465;47.934;33.430;2023-10-13T06:21:56;19.25;17.50;12.75
30713;PMS7003;17465;47.934;33.430;2023-10-13T06:24:27;15.00;15.00;10.75
30713;PMS7003;17465;47.934;33.430;2023-10-13T06:26:58;18.00;16.50;12.00
30713;PMS7003;17465;47.934;33.430;2023-10-13T06:29:29;17.75;15.50;11.00
30713;PMS7003;17465;47.934;33.430;2023-10-13T06:32:04;16.25;16.25;12.00
30713;PMS7003;17465;47.934;33.430;2023-10-13T06:34:35;12.75;12.50;8.00
30713;PMS7003;17465;47.934;33.430;2023-10-13T06:37:15;18.50;17.50;12.25
30713;PMS7003;17465;47.934;33.430;2023-10-13T06:39:43;20.50;16.75;11.75
30713;PMS7003;17465;47.934;33.430;2023-10-13T06:42:16;13.00;13.00;9.50
30713;PMS7003;17465;47.934;33.430;2023-10-13T06:44:48;16.25;13.50;9.25
30713;PMS7003;17465;47.934;33.430;2023-10-13T06:47:19;12.25;12.00;7.00
30713;PMS7003;17465;47.934;33.430;2023-10-13T06:49:51;15.75;15.75;10.75
30713;PMS7003;17465;47.934;33.430;2023-10-13T06:52:22;15.75;15.00;10.75
30713;PMS7003;17465;47.934;33.430;2023-10-13T06:54:54;13.00;13.00;8.75
30713;PMS7003;17465;47.934;33.430;2023-10-13T06:57:24;12.75;12.75;8.75
30713;PMS7003;17465;47.934;33.430;2023-10-13T06:59:55;14.50;13.00;8.50
30713;PMS7003;17465;47.934;33.430;2023-10-13T07:02:28;11.75;11.75;8.75
30713;PMS7003;17465;47.934;33.430;2023-10-13T07:05:01;12.50;10.25;6.00
30713;PMS7003;17465;47.934;33.430;2023-10-13T07:07:31;9.25;9.25;6.75
30713;PMS7003;17465;47.934;33.430;2023-10-13T07:10:02;13.00;11.00;7.75
30713;PMS7003;17465;47.934;33.430;2023-10-13T07:12:34;13.50;13.50;8.75
30713;PMS7003;17465;47.934;33.430;2023-10-13T07:15:04;13.00;11.50;6.50
30713;PMS7003;17465;47.934;33.430;2023-10-13T07:17:35;11.25;9.75;6.00
30713;PMS7003;17465;47.934;33.430;2023-10-13T07:20:07;13.25;13.25;8.00
30713;PMS7003;17465;47.934;33.430;2023-10-13T07:22:47;11.25;10.00;8.00
30713;PMS7003;17465;47.934;33.430;2023-10-13T07:25:12;8.00;8.00;7.00
30713;PMS7003;17465;47.934;33.430;2023-10-13T07:27:43;7.50;6.50;4.00
30713;PMS7003;17465;47.934;33.430;2023-10-13T07:30:13;9.00;7.00;5.00
30713;PMS7003;17465;47.934;33.430;2023-10-13T07:32:46;12.00;10.25;8.25
30713;PMS7003;17465;47.934;33.430;2023-10-13T07:35:17;8.75;8.25;4.25
30713;PMS7003;17465;47.934;33.430;2023-10-13T07:37:49;8.00;8.00;5.00
30713;PMS7003;17465;47.934;33.430;2023-10-13T07:40:20;5.25;5.25;4.25
30713;PMS7003;17465;47.934;33.430;2023-10-13T07:42:51;5.75;5.75;3.25
30713;PMS7003;17465;47.934;33.430;2023-10-13T07:45:24;8.75;8.50;6.25
30713;PMS7003;17465;47.934;33.430;2023-10-13T07:47:54;9.00;9.00;5.75
30713;PMS7003;17465;47.934;33.430;2023-10-13T07:50:24;12.00;10.75;6.00
30713;PMS7003;17465;47.934;33.430;2023-10-13T07:52:58;59.50;48.25;29.50
30713;PMS7003;17465;47.934;33.430;2023-10-13T07:55:28;8.25;7.25;5.00
30713;PMS7003;17465;47.934;33.430;2023-10-13T07:58:03;11.50;11.50;6.50
30713;PMS7003;17465;47.934;33.430;2023-10-13T08:00:36;6.00;6.00;3.25
30713;PMS7003;17465;47.934;33.430;2023-10-13T08:03:05;9.00;9.00;6.00
30713;PMS7003;17465;47.934;33.430;2023-10-13T08:05:36;6.50;6.50;5.00
30713;PMS7003;17465;47.934;33.430;2023-10-13T08:08:06;12.50;10.00;6.00
30713;PMS7003;17465;47.934;33.430;2023-10-13T08:10:39;9.00;9.00;7.00
30713;PMS7003;17465;47.934;33.430;2023-10-13T08:13:11;12.00;12.00;9.00
30713;PMS7003;17465;47.934;33.430;2023-10-13T08:15:41;11.50;9.75;7.00
30713;PMS7003;17465;47.934;33.430;2023-10-13T08:18:12;14.25;13.25;8.00
30713;PMS7003;17465;47.934;33.430;2023-10-13T08:20:45;10.50;9.00;6.25
30713;PMS7003;17465;47.934;33.430;2023-10-13T08:23:15;10.25;9.25;6.25
30713;PMS7003;17465;47.934;33.430;2023-10-13T08:25:45;13.25;12.75;9.00
30713;PMS7003;17465;47.934;33.430;2023-10-13T08:28:16;14.50;13.75;8.50
30713;PMS7003;17465;47.934;33.430;2023-10-13T08:30:46;11.50;11.25;7.75
30713;PMS7003;17465;47.934;33.430;2023-10-13T08:33:16;9.75;7.25;4.00
30713;PMS7003;17465;47.934;33.430;2023-10-13T08:35:47;13.75;12.50;8.00
30713;PMS7003;17465;47.934;33.430;2023-10-13T08:38:20;12.75;11.00;7.00
30713;PMS7003;17465;47.934;33.430;2023-10-13T08:40:54;9.25;9.00;6.00
30713;PMS7003;17465;47.934;33.430;2023-10-13T08:43:42;7.00;6.75;4.00
30713;PMS7003;17465;47.934;33.430;2023-10-13T08:46:26;7.80;7.80;4.80
30713;PMS7003;17465;47.934;33.430;2023-10-13T08:49:09;9.00;9.00;6.75
30713;PMS7003;17465;47.934;33.430;2023-10-13T08:51:36;11.40;11.40;7.00
30713;PMS7003;17465;47.934;33.430;2023-10-13T08:54:12;12.20;10.40;6.40
30713;PMS7003;17465;47.934;33.430;2023-10-13T08:56:51;9.40;9.40;5.80
30713;PMS7003;17465;47.934;33.430;2023-10-13T08:59:23;10.20;9.20;6.00
30713;PMS7003;17465;47.934;33.430;2023-10-13T09:01:59;11.25;11.25;7.00
30713;PMS7003;17465;47.934;33.430;2023-10-13T09:04:31;7.00;6.75;4.75
30713;PMS7003;17465;47.934;33.430;2023-10-13T09:07:07;11.60;10.40;7.00
30713;PMS7003;17465;47.934;33.430;2023-10-13T09:12:22;10.20;10.20;7.20
30713;PMS7003;17465;47.934;33.430;2023-10-13T09:15:00;12.25;12.25;8.25
30713;PMS7003;17465;47.934;33.430;2023-10-13T09:17:26;11.40;11.40;8.00
30713;PMS7003;17465;47.934;33.430;2023-10-13T09:19:59;15.75;14.75;9.75
30713;PMS7003;17465;47.934;33.430;2023-10-13T09:22:31;13.20;11.40;8.00
30713;PMS7003;17465;47.934;33.430;2023-10-13T09:25:04;12.60;12.60;7.60
30713;PMS7003;17465;47.934;33.430;2023-10-13T09:27:34;12.75;10.50;8.00
30713;PMS7003;17465;47.934;33.430;2023-10-13T09:30:05;10.00;10.00;5.25
30713;PMS7003;17465;47.934;33.430;2023-10-13T09:32:36;11.00;10.00;6.80
30713;PMS7003;17465;47.934;33.430;2023-10-13T09:35:08;12.40;11.60;6.20
30713;PMS7003;17465;47.934;33.430;2023-10-13T09:37:40;11.00;11.00;6.40
30713;PMS7003;17465;47.934;33.430;2023-10-13T09:40:13;11.80;10.60;6.80
30713;PMS7003;17465;47.934;33.430;2023-10-13T09:42:50;12.25;11.75;8.50
30713;PMS7003;17465;47.934;33.430;2023-10-13T09:45:34;9.40;9.40;6.00
30713;PMS7003;17465;47.934;33.430;2023-10-13T09:48:03;10.80;10.80;9.00
30713;PMS7003;17465;47.934;33.430;2023-10-13T09:50:39;13.00;12.20;9.40
30713;PMS7003;17465;47.934;33.430;2023-10-13T09:53:07;10.60;10.40;6.40
30713;PMS7003;17465;47.934;33.430;2023-10-13T09:55:43;12.60;11.80;8.60
30713;PMS7003;17465;47.934;33.430;2023-10-13T09:58:21;12.00;11.80;9.60
30713;PMS7003;17465;47.934;33.430;2023-10-13T10:01:09;8.60;8.00;7.60
30713;PMS7003;17465;47.934;33.430;2023-10-13T10:03:45;7.80;7.80;6.20
30713;PMS7003;17465;47.934;33.430;2023-10-13T10:06:27;10.40;10.40;7.20
30713;PMS7003;17465;47.934;33.430;2023-10-13T10:09:06;10.80;10.40;6.60
30713;PMS7003;17465;47.934;33.430;2023-10-13T10:17:39;13.20;11.20;7.80
30713;PMS7003;17465;47.934;33.430;2023-10-13T10:20:13;11.20;11.20;7.80
30713;PMS7003;17465;47.934;33.430;2023-10-13T10:22:57;11.60;9.40;6.80
30713;PMS7003;17465;47.934;33.430;2023-10-13T10:25:29;17.00;15.00;8.20
30713;PMS7003;17465;47.934;33.430;2023-10-13T10:28:09;9.00;8.60;5.80
30713;PMS7003;17465;47.934;33.430;2023-10-13T10:30:36;10.80;10.80;7.00
30713;PMS7003;17465;47.934;33.430;2023-10-13T10:33:11;12.40;11.20;7.40
30713;PMS7003;17465;47.934;33.430;2023-10-13T10:35:46;9.40;9.40;6.80
30713;PMS7003;17465;47.934;33.430;2023-10-13T10:38:18;10.40;10.40;7.00
30713;PMS7003;17465;47.934;33.430;2023-10-13T10:40:49;10.60;10.60;6.60
30713;PMS7003;17465;47.934;33.430;2023-10-13T10:43:42;12.40;11.60;6.20
30713;PMS7003;17465;47.934;33.430;2023-10-13T10:46:13;10.80;10.60;6.60
30713;PMS7003;17465;47.934;33.430;2023-10-13T10:48:46;9.00;8.00;5.40
30713;PMS7003;17465;47.934;33.430;2023-10-13T10:51:16;11.40;10.80;6.80
30713;PMS7003;17465;47.934;33.430;2023-10-13T10:53:50;9.20;8.40;5.40
30713;PMS7003;17465;47.934;33.430;2023-10-13T10:56:22;6.00;4.80;3.00
30713;PMS7003;17465;47.934;33.430;2023-10-13T10:58:58;10.40;10.40;6.80
30713;PMS7003;17465;47.934;33.430;2023-10-13T11:01:31;8.60;8.60;5.60
30713;PMS7003;17465;47.934;33.430;2023-10-13T11:04:03;12.00;11.80;7.00
30713;PMS7003;17465;47.934;33.430;2023-10-13T11:06:35;11.40;9.00;7.00
30713;PMS7003;17465;47.934;33.430;2023-10-13T11:09:06;11.80;11.40;8.60
30713;PMS7003;17465;47.934;33.430;2023-10-13T11:11:37;8.40;8.40;6.00
30713;PMS7003;17465;47.934;33.430;2023-10-13T11:14:08;11.60;10.60;7.00
30713;PMS7003;17465;47.934;33.430;2023-10-13T11:16:47;10.80;9.80;4.80
30713;PMS7003;17465;47.934;33.430;2023-10-13T11:19:18;14.00;11.00;6.20
30713;PMS7003;17465;47.934;33.430;2023-10-13T11:21:49;9.00;9.00;5.40
30713;PMS7003;17465;47.934;33.430;2023-10-13T11:24:20;11.40;10.40;6.20
30713;PMS7003;17465;47.934;33.430;2023-10-13T11:26:52;8.20;8.20;5.00
30713;PMS7003;17465;47.934;33.430;2023-10-13T11:29:31;10.20;10.00;6.40
30713;PMS7003;17465;47.934;33.430;2023-10-13T11:32:02;5.60;5.60;2.20
30713;PMS7003;17465;47.934;33.430;2023-10-13T11:34:35;8.40;8.40;6.40
30713;PMS7003;17465;47.934;33.430;2023-10-13T11:37:05;10.00;10.00;6.00
30713;PMS7003;17465;47.934;33.430;2023-10-13T11:39:36;8.60;8.60;6.20
30713;PMS7003;17465;47.934;33.430;2023-10-13T11:42:07;10.00;10.00;6.80
30713;PMS7003;17465;47.934;33.430;2023-10-13T11:44:37;10.00;10.00;7.20
30713;PMS7003;17465;47.934;33.430;2023-10-13T11:47:07;9.00;9.00;6.20
30713;PMS7003;17465;47.934;33.430;2023-10-13T11:49:39;9.80;7.80;4.00
30713;PMS7003;17465;47.934;33.430;2023-10-13T11:52:09;11.20;10.00;5.00
30713;PMS7003;17465;47.934;33.430;2023-10-13T11:54:39;11.80;10.60;6.00
30713;PMS7003;17465;47.934;33.430;2023-10-13T11:57:10;11.40;11.00;7.40
30713;PMS7003;17465;47.934;33.430;2023-10-13T11:59:40;10.40;7.80;4.40
30713;PMS7003;17465;47.934;33.430;2023-10-13T12:02:10;10.80;10.80;8.60
30713;PMS7003;17465;47.934;33.430;2023-10-13T12:04:44;8.80;8.80;5.00
30713;PMS7003;17465;47.934;33.430;2023-10-13T12:07:14;12.80;9.40;6.60
30713;PMS7003;17465;47.934;33.430;2023-10-13T12:09:51;8.60;8.60;5.80
30713;PMS7003;17465;47.934;33.430;2023-10-13T12:12:25;11.60;11.60;7.20
30713;PMS7003;17465;47.934;33.430;2023-10-13T12:14:56;9.20;9.20;6.00
30713;PMS7003;17465;47.934;33.430;2023-10-13T12:17:27;8.40;8.40;6.00
30713;PMS7003;17465;47.934;33.430;2023-10-13T12:19:59;12.00;9.40;7.00
30713;PMS7003;17465;47.934;33.430;2023-10-13T12:22:31;11.60;9.80;5.80
30713;PMS7003;17465;47.934;33.430;2023-10-13T12:25:01;14.20;13.20;8.40
30713;PMS7003;17465;47.934;33.430;2023-10-13T12:27:35;11.40;10.60;7.00
30713;PMS7003;17465;47.934;33.430;2023-10-13T12:30:06;11.20;9.80;7.00
30713;PMS7003;17465;47.934;33.430;2023-10-13T12:32:39;8.20;8.20;4.20
30713;PMS7003;17465;47.934;33.430;2023-10-13T12:35:10;12.20;11.00;7.20
30713;PMS7003;17465;47.934;33.430;2023-10-13T12:37:40;12.80;12.80;7.00
30713;PMS7003;17465;47.934;33.430;2023-10-13T12:40:13;11.40;10.40;6.00
30713;PMS7003;17465;47.934;33.430;2023-10-13T12:42:45;13.80;13.80;10.00
30713;PMS7003;17465;47.934;33.430;2023-10-13T12:45:16;13.80;13.60;9.20
30713;PMS7003;17465;47.934;33.430;2023-10-13T12:47:46;14.40;13.60;9.20
30713;PMS7003;17465;47.934;33.430;2023-10-13T12:50:17;12.40;12.00;7.60
30713;PMS7003;17465;47.934;33.430;2023-10-13T12:52:47;14.60;12.60;8.00
30713;PMS7003;17465;47.934;33.430;2023-10-13T12:55:18;14.80;12.40;7.00
30713;PMS7003;17465;47.934;33.430;2023-10-13T12:57:50;14.60;11.80;7.60
30713;PMS7003;17465;47.934;33.430;2023-10-13T13:00:22;15.00;14.20;9.60
30713;PMS7003;17465;47.934;33.430;2023-10-13T13:02:52;16.20;16.00;10.80
30713;PMS7003;17465;47.934;33.430;2023-10-13T13:05:28;14.20;13.40;8.00
30713;PMS7003;17465;47.934;33.430;2023-10-13T13:07:57;19.50;18.50;13.00
30713;PMS7003;17465;47.934;33.430;2023-10-13T13:10:34;16.40;13.40;8.20
30713;PMS7003;17465;47.934;33.430;2023-10-13T13:13:08;15.00;13.60;7.80
30713;PMS7003;17465;47.934;33.430;2023-10-13T13:15:41;14.20;14.20;9.80
30713;PMS7003;17465;47.934;33.430;2023-10-13T13:18:07;12.80;10.80;7.80
30713;PMS7003;17465;47.934;33.430;2023-10-13T13:20:38;13.00;12.00;7.80
30713;PMS7003;17465;47.934;33.430;2023-10-13T13:23:13;12.20;11.00;7.20
30713;PMS7003;17465;47.934;33.430;2023-10-13T13:25:57;18.20;17.80;12.60
30713;PMS7003;17465;47.934;33.430;2023-10-13T13:28:35;15.80;14.20;10.20
30713;PMS7003;17465;47.934;33.430;2023-10-13T13:31:05;15.00;12.40;7.00
30713;PMS7003;17465;47.934;33.430;2023-10-13T13:33:36;17.20;15.40;9.80
30713;PMS7003;17465;47.934;33.430;2023-10-13T13:36:11;19.00;13.60;8.00
30713;PMS7003;17465;47.934;33.430;2023-10-13T13:38:40;11.20;11.20;7.80
30713;PMS7003;17465;47.934;33.430;2023-10-13T13:41:14;16.60;16.00;10.60
30713;PMS7003;17465;47.934;33.430;2023-10-13T13:43:45;16.60;15.40;10.20
30713;PMS7003;17465;47.934;33.430;2023-10-13T13:46:18;16.60;16.40;12.00
30713;PMS7003;17465;47.934;33.430;2023-10-13T13:48:49;18.60;18.60;13.00
30713;PMS7003;17465;47.934;33.430;2023-10-13T13:51:20;14.80;14.80;10.80
30713;PMS7003;17465;47.934;33.430;2023-10-13T13:53:56;19.50;19.00;10.25
30713;PMS7003;17465;47.934;33.430;2023-10-13T13:56:26;17.50;16.50;12.00
30713;PMS7003;17465;47.934;33.430;2023-10-13T13:59:02;16.25;15.25;10.50
30713;PMS7003;17465;47.934;33.430;2023-10-13T14:01:32;17.50;16.00;10.75
30713;PMS7003;17465;47.934;33.430;2023-10-13T14:04:02;17.75;17.25;14.50
30713;PMS7003;17465;47.934;33.430;2023-10-13T14:06:35;21.00;19.00;12.00
30713;PMS7003;17465;47.934;33.430;2023-10-13T14:09:06;23.00;22.50;15.00
30713;PMS7003;17465;47.934;33.430;2023-10-13T14:11:36;22.00;21.00;14.00
30713;PMS7003;17465;47.934;33.430;2023-10-13T14:14:07;25.25;24.50;17.25
30713;PMS7003;17465;47.934;33.430;2023-10-13T14:16:42;25.00;25.00;17.00
30713;PMS7003;17465;47.934;33.430;2023-10-13T14:19:13;25.75;23.75;15.25
30713;PMS7003;17465;47.934;33.430;2023-10-13T14:21:44;21.00;21.00;15.00
30713;PMS7003;17465;47.934;33.430;2023-10-13T14:24:14;25.00;23.00;16.25
30713;PMS7003;17465;47.934;33.430;2023-10-13T14:26:46;24.00;21.00;15.50
30713;PMS7003;17465;47.934;33.430;2023-10-13T14:29:16;20.25;19.75;15.25
30713;PMS7003;17465;47.934;33.430;2023-10-13T14:31:46;22.75;19.50;12.50
30713;PMS7003;17465;47.934;33.430;2023-10-13T14:34:16;24.00;21.75;15.50